createdAt,value
2017-11-27T00:01:03.844Z,56.00
2017-11-27T00:03:31.344Z,56.00
2017-11-27T00:05:58.872Z,55.90
2017-11-27T00:08:27.159Z,55.80
2017-11-27T00:10:55.444Z,55.60
2017-11-27T00:13:22.965Z,55.60
2017-11-27T00:15:50.477Z,55.70
2017-11-27T00:18:17.974Z,55.70
2017-11-27T00:20:45.501Z,55.70
2017-11-27T00:23:13.020Z,55.70
2017-11-27T00:25:40.534Z,55.60
2017-11-27T00:28:08.041Z,55.30
2017-11-27T00:30:35.558Z,55.40
2017-11-27T00:33:03.063Z,55.50
2017-11-27T00:35:31.344Z,55.40
2017-11-27T00:37:59.615Z,55.30
2017-11-27T00:40:27.907Z,55.20
2017-11-27T00:42:55.406Z,55.10
2017-11-27T00:45:22.943Z,55.10
2017-11-27T00:47:50.473Z,55.20
2017-11-27T00:50:18.028Z,55.00
2017-11-27T00:52:46.294Z,55.20
2017-11-27T00:55:14.589Z,54.90
2017-11-27T00:57:42.896Z,55.00
2017-11-27T01:00:10.404Z,54.90
2017-11-27T01:02:37.952Z,55.20
2017-11-27T01:05:05.461Z,55.90
2017-11-27T01:07:33.054Z,56.70
2017-11-27T01:10:00.569Z,57.70
2017-11-27T01:12:28.097Z,57.80
2017-11-27T01:14:55.595Z,58.00
2017-11-27T01:17:23.120Z,58.20
2017-11-27T01:19:50.621Z,58.40
2017-11-27T01:22:18.202Z,58.60
2017-11-27T01:24:45.721Z,58.60
2017-11-27T01:27:13.243Z,58.70
2017-11-27T01:29:40.737Z,58.70
2017-11-27T01:32:09.024Z,58.60
2017-11-27T01:34:36.524Z,58.50
2017-11-27T01:37:04.022Z,58.50
2017-11-27T01:39:31.551Z,58.40
2017-11-27T01:41:59.057Z,58.30
2017-11-27T01:44:26.572Z,58.30
2017-11-27T01:46:54.074Z,58.30
2017-11-27T01:49:22.359Z,58.40
2017-11-27T01:51:49.861Z,58.40
2017-11-27T01:54:17.401Z,58.40
2017-11-27T01:56:44.903Z,58.40
2017-11-27T01:59:12.426Z,58.30
2017-11-27T02:01:39.915Z,58.40
2017-11-27T02:04:07.444Z,58.40
2017-11-27T02:06:34.944Z,58.40
2017-11-27T02:09:03.255Z,58.40
2017-11-27T02:11:30.756Z,58.30
2017-11-27T02:13:58.262Z,58.40
2017-11-27T02:16:25.782Z,58.40
2017-11-27T02:18:53.294Z,58.40
2017-11-27T02:21:20.815Z,58.40
2017-11-27T02:23:48.316Z,58.30
2017-11-27T02:26:15.832Z,58.30
2017-11-27T02:28:43.335Z,58.40
2017-11-27T02:31:10.857Z,58.40
2017-11-27T02:33:39.131Z,58.50
2017-11-27T02:36:06.669Z,58.40
2017-11-27T02:38:34.176Z,58.40
2017-11-27T02:41:01.684Z,58.40
2017-11-27T02:43:29.206Z,58.40
2017-11-27T02:45:56.714Z,58.40
2017-11-27T02:48:24.258Z,58.40
2017-11-27T02:50:51.782Z,58.40
2017-11-27T02:53:19.296Z,58.40
2017-11-27T02:55:46.802Z,58.40
2017-11-27T02:58:14.335Z,58.40
2017-11-27T03:00:42.595Z,58.50
2017-11-27T03:03:10.115Z,58.40
2017-11-27T03:05:37.628Z,58.40
2017-11-27T03:08:05.912Z,58.50
2017-11-27T03:10:33.412Z,58.40
2017-11-27T03:13:00.929Z,58.50
2017-11-27T03:15:28.427Z,58.50
2017-11-27T03:17:55.948Z,58.50
2017-11-27T03:20:23.443Z,58.50
2017-11-27T03:22:50.987Z,58.50
2017-11-27T03:25:18.487Z,58.40
2017-11-27T03:27:45.988Z,58.30
2017-11-27T03:30:13.509Z,58.40
2017-11-27T03:32:41.008Z,58.50
2017-11-27T03:35:08.524Z,58.40
2017-11-27T03:37:36.053Z,58.40
2017-11-27T03:40:03.567Z,58.40
2017-11-27T03:42:31.831Z,58.40
2017-11-27T03:45:00.144Z,58.40
2017-11-27T03:47:27.643Z,58.30
2017-11-27T03:49:55.159Z,58.40
2017-11-27T03:52:22.659Z,58.40
2017-11-27T03:54:50.351Z,58.30
2017-11-27T03:57:18.634Z,58.30
2017-11-27T03:59:46.167Z,58.30
2017-11-27T04:02:13.664Z,58.30
2017-11-27T04:04:41.195Z,58.40
2017-11-27T04:07:08.695Z,58.40
2017-11-27T04:09:36.243Z,59.00
2017-11-27T04:12:03.751Z,58.30
2017-11-27T04:14:31.251Z,58.30
2017-11-27T04:16:58.779Z,58.30
2017-11-27T04:19:26.282Z,58.40
2017-11-27T04:21:53.800Z,58.30
2017-11-27T04:24:21.292Z,58.40
2017-11-27T04:26:49.570Z,58.40
2017-11-27T04:29:17.839Z,58.30
2017-11-27T04:31:45.356Z,58.30
2017-11-27T04:34:12.866Z,58.30
2017-11-27T04:36:41.172Z,58.30
2017-11-27T04:39:08.672Z,58.20
2017-11-27T04:41:36.164Z,58.30
2017-11-27T04:44:03.687Z,58.30
2017-11-27T04:46:31.224Z,58.30
2017-11-27T04:48:58.762Z,58.30
2017-11-27T04:51:26.263Z,58.30
2017-11-27T04:53:53.781Z,58.30
2017-11-27T04:56:21.282Z,58.20
2017-11-27T04:58:48.832Z,58.10
2017-11-27T05:01:16.336Z,58.10
2017-11-27T05:03:43.848Z,58.00
2017-11-27T05:06:11.392Z,58.00
2017-11-27T05:08:38.938Z,57.80
2017-11-27T05:11:06.463Z,57.80
2017-11-27T05:13:34.763Z,57.60
2017-11-27T05:16:02.260Z,57.60
2017-11-27T05:18:29.773Z,57.60
2017-11-27T05:20:57.268Z,57.50
2017-11-27T05:23:24.804Z,57.50
2017-11-27T05:25:52.317Z,57.50
2017-11-27T05:28:19.843Z,57.40
2017-11-27T05:30:47.349Z,58.00
2017-11-27T05:33:15.648Z,57.40
2017-11-27T05:35:43.148Z,57.30
2017-11-27T05:38:10.660Z,57.30
2017-11-27T05:40:38.176Z,57.30
2017-11-27T05:43:05.698Z,57.20
2017-11-27T05:45:33.217Z,56.70
2017-11-27T05:48:00.732Z,57.00
2017-11-27T05:50:28.254Z,57.00
2017-11-27T05:52:55.759Z,56.90
2017-11-27T05:55:23.308Z,56.90
2017-11-27T05:57:50.835Z,56.90
2017-11-27T06:00:18.335Z,56.90
2017-11-27T06:02:45.868Z,56.80
2017-11-27T06:05:13.363Z,56.80
2017-11-27T06:07:40.888Z,56.70
2017-11-27T06:10:08.395Z,56.50
2017-11-27T06:12:35.915Z,56.50
2017-11-27T06:15:03.421Z,56.60
2017-11-27T06:17:30.940Z,56.60
2017-11-27T06:19:58.459Z,56.70
2017-11-27T06:22:25.980Z,56.70
2017-11-27T06:24:53.485Z,56.70
2017-11-27T06:27:21.004Z,56.60
2017-11-27T06:29:49.287Z,56.60
2017-11-27T06:32:16.840Z,56.50
2017-11-27T06:34:44.367Z,56.80
2017-11-27T06:37:11.896Z,56.40
2017-11-27T06:39:39.414Z,56.30
2017-11-27T06:42:07.023Z,56.30
2017-11-27T06:44:34.521Z,56.40
2017-11-27T06:47:02.030Z,56.50
2017-11-27T06:49:29.548Z,56.50
2017-11-27T06:51:57.055Z,56.50
2017-11-27T06:54:24.580Z,56.50
2017-11-27T06:56:52.120Z,56.40
2017-11-27T06:59:19.635Z,56.30
2017-11-27T07:01:47.127Z,56.30
2017-11-27T07:04:14.640Z,56.20
2017-11-27T07:06:42.141Z,56.10
2017-11-27T07:09:09.667Z,56.10
2017-11-27T07:11:37.195Z,56.00
2017-11-27T07:14:05.487Z,55.80
2017-11-27T07:16:33.764Z,55.50
2017-11-27T07:19:01.268Z,55.40
2017-11-27T07:21:28.795Z,55.60
2017-11-27T07:23:56.292Z,55.90
2017-11-27T07:26:23.812Z,56.10
2017-11-27T07:28:51.311Z,56.00
2017-11-27T07:31:18.842Z,56.10
2017-11-27T07:33:46.348Z,56.20
2017-11-27T07:36:13.869Z,56.20
2017-11-27T07:38:46.927Z,56.20
2017-11-27T07:41:15.211Z,56.40
2017-11-27T07:43:42.724Z,56.30
2017-11-27T07:46:10.240Z,56.50
2017-11-27T07:48:37.767Z,56.50
2017-11-27T07:51:06.095Z,57.20
2017-11-27T07:53:33.588Z,56.60
2017-11-27T07:56:01.121Z,56.60
2017-11-27T07:58:28.702Z,56.60
2017-11-27T08:00:56.209Z,56.50
2017-11-27T08:03:23.724Z,56.40
2017-11-27T08:05:51.218Z,56.40
2017-11-27T08:08:18.740Z,56.40
2017-11-27T08:10:46.231Z,56.50
2017-11-27T08:13:14.521Z,56.60
2017-11-27T08:15:42.027Z,56.50
2017-11-27T08:18:09.548Z,56.60
2017-11-27T08:20:37.047Z,56.70
2017-11-27T08:23:04.564Z,56.70
2017-11-27T08:25:32.063Z,56.70
2017-11-27T08:27:59.600Z,56.80
2017-11-27T08:30:27.097Z,56.90
2017-11-27T08:32:54.596Z,56.80
2017-11-27T08:35:22.131Z,56.40
2017-11-27T08:37:50.394Z,56.00
2017-11-27T08:40:17.923Z,55.90
2017-11-27T08:42:45.424Z,55.90
2017-11-27T08:45:13.713Z,56.00
2017-11-27T08:47:41.217Z,55.90
2017-11-27T08:50:08.754Z,56.00
2017-11-27T08:52:36.312Z,55.60
2017-11-27T08:55:03.831Z,55.60
2017-11-27T08:57:32.098Z,56.70
2017-11-27T08:59:59.623Z,56.00
2017-11-27T09:02:27.131Z,55.80
2017-11-27T09:04:54.644Z,55.50
2017-11-27T09:07:22.146Z,55.40
2017-11-27T09:09:50.432Z,55.30
2017-11-27T09:12:17.938Z,55.20
2017-11-27T09:14:45.476Z,54.80
2017-11-27T09:17:12.972Z,54.60
2017-11-27T09:19:40.508Z,54.30
2017-11-27T09:22:08.784Z,54.50
2017-11-27T09:24:36.298Z,54.40
2017-11-27T09:27:04.581Z,54.30
2017-11-27T09:29:32.081Z,54.30
2017-11-27T09:31:59.600Z,54.30
2017-11-27T09:34:27.864Z,54.30
2017-11-27T09:36:56.252Z,54.30
2017-11-27T09:39:24.535Z,54.00
2017-11-27T09:41:52.828Z,54.10
2017-11-27T09:44:20.340Z,54.10
2017-11-27T09:46:47.900Z,53.90
2017-11-27T09:49:15.436Z,53.70
2017-11-27T09:51:42.967Z,53.50
2017-11-27T09:54:10.537Z,53.60
2017-11-27T09:56:38.070Z,52.80
2017-11-27T09:59:05.576Z,52.90
2017-11-27T10:01:33.103Z,52.90
2017-11-27T10:04:00.622Z,52.20
2017-11-27T10:06:28.137Z,52.50
2017-11-27T10:08:55.655Z,52.60
2017-11-27T10:11:23.922Z,51.70
2017-11-27T10:13:51.453Z,51.70
2017-11-27T10:16:18.971Z,52.40
2017-11-27T10:18:46.547Z,51.90
2017-11-27T10:21:14.058Z,51.10
2017-11-27T10:23:41.573Z,51.40
2017-11-27T10:26:09.077Z,51.90
2017-11-27T10:28:36.607Z,51.70
2017-11-27T10:31:04.118Z,52.70
2017-11-27T10:33:32.409Z,51.60
2017-11-27T10:35:59.921Z,51.60
2017-11-27T10:38:27.461Z,51.00
2017-11-27T10:40:54.972Z,51.60
2017-11-27T10:43:23.256Z,51.90
2017-11-27T10:45:50.782Z,51.90
2017-11-27T10:48:19.107Z,51.80
2017-11-27T10:50:46.672Z,51.70
2017-11-27T10:53:14.182Z,51.70
2017-11-27T10:55:41.692Z,52.00
2017-11-27T10:58:09.223Z,52.00
2017-11-27T11:00:42.276Z,51.80
2017-11-27T11:03:09.797Z,51.60
2017-11-27T11:05:37.301Z,51.50
2017-11-27T11:08:04.827Z,50.90
2017-11-27T11:10:32.320Z,51.00
2017-11-27T11:12:59.843Z,50.90
2017-11-27T11:15:27.344Z,51.10
2017-11-27T11:17:54.865Z,51.00
2017-11-27T11:20:22.372Z,50.10
2017-11-27T11:22:50.676Z,50.30
2017-11-27T11:25:18.187Z,50.30
2017-11-27T11:27:45.727Z,49.40
2017-11-27T11:30:13.240Z,49.60
2017-11-27T11:32:40.748Z,49.90
2017-11-27T11:35:08.267Z,49.90
2017-11-27T11:37:35.767Z,49.60
2017-11-27T11:40:03.289Z,49.10
2017-11-27T11:42:30.805Z,49.40
2017-11-27T11:44:58.330Z,49.60
2017-11-27T11:47:25.839Z,49.70
2017-11-27T11:49:53.388Z,50.10
2017-11-27T11:52:20.888Z,50.20
2017-11-27T11:54:48.420Z,49.80
2017-11-27T11:57:16.694Z,50.20
2017-11-27T11:59:44.975Z,50.60
2017-11-27T12:02:13.279Z,50.10
2017-11-27T12:04:40.812Z,50.00
2017-11-27T12:07:09.084Z,48.80
2017-11-27T12:09:37.367Z,48.20
2017-11-27T12:12:05.635Z,48.60
2017-11-27T12:14:33.938Z,49.20
2017-11-27T12:17:01.445Z,49.20
2017-11-27T12:19:29.960Z,48.10
2017-11-27T12:21:58.228Z,48.30
2017-11-27T12:24:26.519Z,48.00
2017-11-27T12:26:54.034Z,47.50
2017-11-27T12:29:21.559Z,47.80
2017-11-27T12:31:49.065Z,48.30
2017-11-27T12:34:16.599Z,48.60
2017-11-27T12:36:44.116Z,46.40
2017-11-27T12:39:12.384Z,47.40
2017-11-27T12:41:40.675Z,48.10
2017-11-27T12:44:08.169Z,47.40
2017-11-27T12:46:35.696Z,48.20
2017-11-27T12:49:03.202Z,46.40
2017-11-27T12:51:30.742Z,46.00
2017-11-27T12:53:58.236Z,46.20
2017-11-27T12:56:25.754Z,46.00
2017-11-27T12:58:53.260Z,46.80
2017-11-27T13:01:20.788Z,47.20
2017-11-27T13:03:48.288Z,45.30
2017-11-27T13:06:16.585Z,45.40
2017-11-27T13:08:44.087Z,45.30
2017-11-27T13:11:11.608Z,43.40
2017-11-27T13:13:39.108Z,43.50
2017-11-27T13:16:06.652Z,43.00
2017-11-27T13:18:34.202Z,41.70
2017-11-27T13:21:01.713Z,42.70
2017-11-27T13:23:29.232Z,42.20
2017-11-27T13:25:56.736Z,41.70
2017-11-27T13:28:25.016Z,42.90
2017-11-27T13:30:53.291Z,42.10
2017-11-27T13:33:21.582Z,42.10
2017-11-27T13:35:49.848Z,39.70
2017-11-27T13:38:20.074Z,40.10
2017-11-27T13:40:48.379Z,41.40
2017-11-27T13:43:15.919Z,41.30
2017-11-27T13:45:43.428Z,41.10
2017-11-27T13:48:10.975Z,40.40
2017-11-27T13:50:38.484Z,40.40
2017-11-27T13:53:06.761Z,41.90
2017-11-27T13:55:35.045Z,41.20
2017-11-27T13:58:03.320Z,40.20
2017-11-27T14:00:31.617Z,40.80
2017-11-27T14:02:59.119Z,40.80
2017-11-27T14:05:26.636Z,40.20
2017-11-27T14:07:54.149Z,41.00
2017-11-27T14:10:21.770Z,41.70
2017-11-27T14:12:49.272Z,42.10
2017-11-27T14:15:16.808Z,42.00
2017-11-27T14:17:44.319Z,40.90
2017-11-27T14:20:12.628Z,39.80
2017-11-27T14:22:40.132Z,39.70
2017-11-27T14:25:07.703Z,39.80
2017-11-27T14:27:35.987Z,40.80
2017-11-27T14:30:03.532Z,40.80
2017-11-27T14:32:31.819Z,41.60
2017-11-27T14:35:00.113Z,40.80
2017-11-27T14:37:28.385Z,40.30
2017-11-27T14:39:56.663Z,40.40
2017-11-27T14:42:24.944Z,40.60
2017-11-27T14:44:52.505Z,40.50
2017-11-27T14:47:20.008Z,41.00
2017-11-27T14:49:47.515Z,41.30
2017-11-27T14:52:15.060Z,41.70
2017-11-27T14:54:43.337Z,41.80
2017-11-27T14:57:11.648Z,42.60
2017-11-27T14:59:39.160Z,42.50
2017-11-27T15:02:06.692Z,41.90
2017-11-27T15:04:34.201Z,42.00
2017-11-27T15:07:02.500Z,42.00
2017-11-27T15:09:29.999Z,41.90
2017-11-27T15:11:57.537Z,42.50
2017-11-27T15:14:25.806Z,43.00
2017-11-27T15:16:53.341Z,43.00
2017-11-27T15:19:20.860Z,43.20
2017-11-27T15:21:48.461Z,42.50
2017-11-27T15:24:16.821Z,42.90
2017-11-27T15:26:45.129Z,43.40
2017-11-27T15:29:12.629Z,43.10
2017-11-27T15:31:40.151Z,43.40
2017-11-27T15:34:07.645Z,43.40
2017-11-27T15:36:35.176Z,43.40
2017-11-27T15:39:02.696Z,43.30
2017-11-27T15:41:30.230Z,42.90
2017-11-27T15:43:57.723Z,43.30
2017-11-27T15:46:25.248Z,43.10
2017-11-27T15:48:52.777Z,43.10
2017-11-27T15:51:21.085Z,42.50
2017-11-27T15:53:48.603Z,42.30
2017-11-27T15:56:16.131Z,42.60
2017-11-27T15:58:43.637Z,43.00
2017-11-27T16:01:11.167Z,43.30
2017-11-27T16:03:38.693Z,42.30
2017-11-27T16:06:06.991Z,42.10
2017-11-27T16:08:35.278Z,42.30
2017-11-27T16:11:02.812Z,42.20
2017-11-27T16:13:30.330Z,42.10
2017-11-27T16:15:57.843Z,42.30
2017-11-27T16:18:25.336Z,42.50
2017-11-27T16:20:52.868Z,42.90
2017-11-27T16:23:20.400Z,43.30
2017-11-27T16:25:47.919Z,43.60
2017-11-27T16:28:15.416Z,43.80
2017-11-27T16:30:42.936Z,44.00
2017-11-27T16:33:10.428Z,44.20
2017-11-27T16:35:37.941Z,44.30
2017-11-27T16:38:05.463Z,44.40
2017-11-27T16:40:33.745Z,44.30
2017-11-27T16:43:02.088Z,44.20
2017-11-27T16:45:29.596Z,44.10
2017-11-27T16:47:57.880Z,44.00
2017-11-27T16:50:26.142Z,44.10
2017-11-27T16:52:54.447Z,44.30
2017-11-27T16:55:21.946Z,44.20
2017-11-27T16:57:49.474Z,44.50
2017-11-27T17:00:17.008Z,44.70
2017-11-27T17:02:44.536Z,44.80
2017-11-27T17:05:12.053Z,44.50
2017-11-27T17:07:39.577Z,44.40
2017-11-27T17:10:07.922Z,44.60
2017-11-27T17:12:35.459Z,44.60
2017-11-27T17:15:03.832Z,44.60
2017-11-27T17:17:31.376Z,44.50
2017-11-27T17:19:58.899Z,44.50
2017-11-27T17:22:27.176Z,45.10
2017-11-27T17:24:54.708Z,44.30
2017-11-27T17:27:22.212Z,44.20
2017-11-27T17:29:51.497Z,44.20
2017-11-27T17:32:20.777Z,44.40
2017-11-27T17:34:48.304Z,44.30
2017-11-27T17:37:15.982Z,43.40
2017-11-27T17:39:43.559Z,43.90
2017-11-27T17:42:11.079Z,43.90
2017-11-27T17:44:39.368Z,43.70
2017-11-27T17:47:07.114Z,43.50
2017-11-27T17:49:34.636Z,43.30
2017-11-27T17:52:02.912Z,43.80
2017-11-27T17:54:32.409Z,43.80
2017-11-27T17:56:59.926Z,43.70
2017-11-27T17:59:27.506Z,43.70
2017-11-27T18:01:55.021Z,43.80
2017-11-27T18:04:22.520Z,44.20
2017-11-27T18:06:50.045Z,44.20
2017-11-27T18:09:17.578Z,44.30
2017-11-27T18:11:45.120Z,44.40
2017-11-27T18:14:12.623Z,44.30
2017-11-27T18:16:40.152Z,44.20
2017-11-27T18:19:07.644Z,44.10
2017-11-27T18:21:35.232Z,44.60
2017-11-27T18:24:02.742Z,44.90
2017-11-27T18:26:31.009Z,44.70
2017-11-27T18:28:58.551Z,44.60
2017-11-27T18:31:26.056Z,44.60
2017-11-27T18:33:53.604Z,44.60
2017-11-27T18:36:21.880Z,45.40
2017-11-27T18:38:50.191Z,45.50
2017-11-27T18:41:17.710Z,45.40
2017-11-27T18:43:45.229Z,45.50
2017-11-27T18:46:12.749Z,45.60
2017-11-27T18:48:40.294Z,45.60
2017-11-27T18:51:07.805Z,45.60
2017-11-27T18:53:35.412Z,46.00
2017-11-27T18:56:03.716Z,46.20
2017-11-27T18:58:31.277Z,46.10
2017-11-27T19:00:58.795Z,46.10
2017-11-27T19:03:26.297Z,46.10
2017-11-27T19:05:53.832Z,46.20
2017-11-27T19:08:21.340Z,46.40
2017-11-27T19:10:48.880Z,46.50
2017-11-27T19:13:16.416Z,46.50
2017-11-27T19:15:43.931Z,46.40
2017-11-27T19:18:11.464Z,46.70
2017-11-27T19:20:38.978Z,46.80
2017-11-27T19:23:07.240Z,46.50
2017-11-27T19:25:34.752Z,46.40
2017-11-27T19:28:02.245Z,46.80
2017-11-27T19:30:29.777Z,47.00
2017-11-27T19:32:57.272Z,47.20
2017-11-27T19:35:24.799Z,47.20
2017-11-27T19:37:52.297Z,47.30
2017-11-27T19:40:20.658Z,47.30
2017-11-27T19:42:48.204Z,47.20
2017-11-27T19:45:15.707Z,47.30
2017-11-27T19:47:43.240Z,47.30
2017-11-27T19:50:10.739Z,47.40
2017-11-27T19:52:38.324Z,47.30
2017-11-27T19:55:05.852Z,47.30
2017-11-27T19:57:34.132Z,46.90
2017-11-27T20:00:01.688Z,46.90
2017-11-27T20:02:29.976Z,47.20
2017-11-27T20:04:57.510Z,47.20
2017-11-27T20:07:25.042Z,47.00
2017-11-27T20:09:52.574Z,47.50
2017-11-27T20:12:20.133Z,46.60
2017-11-27T20:14:47.641Z,46.60
2017-11-27T20:17:15.161Z,46.90
2017-11-27T20:19:42.672Z,47.00
2017-11-27T20:22:10.969Z,47.10
2017-11-27T20:24:38.504Z,47.10
2017-11-27T20:27:06.039Z,47.10
2017-11-27T20:29:33.545Z,47.10
2017-11-27T20:32:01.091Z,47.00
2017-11-27T20:34:29.769Z,47.10
2017-11-27T20:36:58.521Z,46.80
2017-11-27T20:39:26.024Z,46.70
2017-11-27T20:41:54.313Z,46.60
2017-11-27T20:44:21.822Z,46.50
2017-11-27T20:46:49.339Z,46.60
2017-11-27T20:49:16.847Z,46.60
2017-11-27T20:51:44.409Z,46.60
2017-11-27T20:54:11.929Z,46.50
2017-11-27T20:56:41.408Z,46.60
2017-11-27T20:59:09.708Z,46.80
2017-11-27T21:01:37.214Z,46.60
2017-11-27T21:04:04.741Z,46.90
2017-11-27T21:06:32.261Z,47.00
2017-11-27T21:09:00.552Z,46.70
2017-11-27T21:11:28.072Z,46.60
2017-11-27T21:13:55.596Z,47.00
2017-11-27T21:16:23.088Z,46.60
2017-11-27T21:18:50.612Z,47.10
2017-11-27T21:21:18.113Z,46.80
2017-11-27T21:23:45.628Z,46.80
2017-11-27T21:26:13.136Z,46.90
2017-11-27T21:28:40.665Z,47.00
2017-11-27T21:31:08.227Z,46.60
2017-11-27T21:33:35.738Z,46.70
2017-11-27T21:36:03.256Z,46.90
2017-11-27T21:38:30.749Z,47.00
2017-11-27T21:40:59.033Z,47.00
2017-11-27T21:43:26.533Z,46.90
2017-11-27T21:45:54.052Z,47.10
2017-11-27T21:48:21.566Z,47.30
2017-11-27T21:50:49.145Z,46.90
2017-11-27T21:53:16.676Z,47.00
2017-11-27T21:55:44.196Z,47.00
2017-11-27T21:58:11.712Z,46.80
2017-11-27T22:00:39.220Z,46.40
2017-11-27T22:03:06.741Z,46.70
2017-11-27T22:05:34.276Z,46.70
2017-11-27T22:08:01.802Z,46.80
2017-11-27T22:10:29.307Z,46.60
2017-11-27T22:12:56.825Z,46.60
2017-11-27T22:15:24.320Z,46.80
2017-11-27T22:17:51.845Z,46.80
2017-11-27T22:20:19.352Z,47.00
2017-11-27T22:22:46.988Z,46.90
2017-11-27T22:25:14.487Z,46.90
2017-11-27T22:27:42.027Z,46.40
2017-11-27T22:30:09.533Z,46.40
2017-11-27T22:32:37.051Z,46.60
2017-11-27T22:35:04.549Z,46.70
2017-11-27T22:37:32.122Z,46.20
2017-11-27T22:39:59.645Z,46.50
2017-11-27T22:42:27.911Z,46.30
2017-11-27T22:44:56.205Z,46.20
2017-11-27T22:47:23.723Z,46.10
2017-11-27T22:49:51.244Z,46.30
2017-11-27T22:52:18.747Z,46.50
2017-11-27T22:54:46.263Z,46.40
2017-11-27T22:57:13.757Z,46.80
2017-11-27T22:59:41.286Z,46.80
2017-11-27T23:02:08.779Z,47.00
2017-11-27T23:04:36.291Z,46.90
2017-11-27T23:07:03.808Z,46.80
2017-11-27T23:09:31.343Z,47.00
2017-11-27T23:11:58.868Z,46.40
2017-11-27T23:14:26.391Z,46.60
2017-11-27T23:16:53.888Z,46.80
2017-11-27T23:19:21.406Z,46.90
2017-11-27T23:21:48.908Z,47.10
2017-11-27T23:24:16.428Z,46.70
2017-11-27T23:26:43.928Z,46.80
2017-11-27T23:29:11.452Z,47.10
2017-11-27T23:31:39.719Z,47.40
2017-11-27T23:34:07.236Z,47.30
2017-11-27T23:36:34.745Z,47.50
2017-11-27T23:39:03.032Z,47.60
2017-11-27T23:41:31.323Z,47.70
2017-11-27T23:43:58.825Z,47.60
2017-11-27T23:46:26.340Z,47.80
2017-11-27T23:48:53.841Z,47.80
2017-11-27T23:51:21.366Z,47.80
2017-11-27T23:53:48.869Z,47.80
2017-11-27T23:56:16.380Z,48.00
2017-11-27T23:58:43.874Z,47.80
